sensor_id;sensor_type;location;lat;lon;timestamp;P1;durP1;ratioP1;P2;durP2;ratioP2
35971;SDS011;22052;0.000;0.000;2023-07-02T00:01:50;0.40;;;0.40;;
35971;SDS011;22052;0.000;0.000;2023-07-02T00:04:16;0.73;;;0.50;;
35971;SDS011;22052;0.000;0.000;2023-07-02T00:06:47;0.50;;;0.50;;
35971;SDS011;22052;0.000;0.000;2023-07-02T00:09:14;0.50;;;0.50;;
35971;SDS011;22052;0.000;0.000;2023-07-02T00:11:41;0.68;;;0.50;;
35971;SDS011;22052;0.000;0.000;2023-07-02T00:14:08;0.40;;;0.40;;
35971;SDS011;22052;0.000;0.000;2023-07-02T00:16:44;0.73;;;0.50;;
35971;SDS011;22052;0.000;0.000;2023-07-02T00:19:11;0.50;;;0.50;;
35971;SDS011;22052;0.000;0.000;2023-07-02T00:21:37;0.75;;;0.60;;
35971;SDS011;22052;0.000;0.000;2023-07-02T00:24:04;0.60;;;0.57;;
35971;SDS011;22052;0.000;0.000;2023-07-02T00:26:30;0.88;;;0.50;;
35971;SDS011;22052;0.000;0.000;2023-07-02T00:28:56;0.77;;;0.60;;
35971;SDS011;22052;0.000;0.000;2023-07-02T00:31:23;0.65;;;0.40;;
35971;SDS011;22052;0.000;0.000;2023-07-02T00:33:49;0.43;;;0.43;;
35971;SDS011;22052;0.000;0.000;2023-07-02T00:36:16;0.40;;;0.40;;
35971;SDS011;22052;0.000;0.000;2023-07-02T00:38:46;0.60;;;0.50;;
35971;SDS011;22052;0.000;0.000;2023-07-02T00:41:12;0.70;;;0.65;;
35971;SDS011;22052;0.000;0.000;2023-07-02T00:43:38;0.50;;;0.50;;
35971;SDS011;22052;0.000;0.000;2023-07-02T00:46:08;0.60;;;0.50;;
35971;SDS011;22052;0.000;0.000;2023-07-02T00:48:35;0.70;;;0.60;;
35971;SDS011;22052;0.000;0.000;2023-07-02T00:51:01;0.50;;;0.50;;
35971;SDS011;22052;0.000;0.000;2023-07-02T00:53:27;0.50;;;0.43;;
35971;SDS011;22052;0.000;0.000;2023-07-02T00:55:53;0.63;;;0.50;;
35971;SDS011;22052;0.000;0.000;2023-07-02T00:58:19;0.63;;;0.60;;
35971;SDS011;22052;0.000;0.000;2023-07-02T01:00:46;1.33;;;0.75;;
35971;SDS011;22052;0.000;0.000;2023-07-02T01:03:12;0.95;;;0.60;;
35971;SDS011;22052;0.000;0.000;2023-07-02T01:05:38;2.17;;;0.65;;
35971;SDS011;22052;0.000;0.000;2023-07-02T01:08:06;0.52;;;0.52;;
35971;SDS011;22052;0.000;0.000;2023-07-02T01:10:32;0.73;;;0.40;;
35971;SDS011;22052;0.000;0.000;2023-07-02T01:13:00;1.02;;;0.70;;
35971;SDS011;22052;0.000;0.000;2023-07-02T01:15:27;0.60;;;0.50;;
35971;SDS011;22052;0.000;0.000;2023-07-02T01:17:53;0.80;;;0.60;;
35971;SDS011;22052;0.000;0.000;2023-07-02T01:20:20;1.35;;;0.52;;
35971;SDS011;22052;0.000;0.000;2023-07-02T01:22:46;1.02;;;0.77;;
35971;SDS011;22052;0.000;0.000;2023-07-02T01:25:16;0.57;;;0.57;;
35971;SDS011;22052;0.000;0.000;2023-07-02T01:27:43;0.73;;;0.70;;
35971;SDS011;22052;0.000;0.000;2023-07-02T01:30:09;0.93;;;0.52;;
35971;SDS011;22052;0.000;0.000;2023-07-02T01:32:36;0.70;;;0.70;;
35971;SDS011;22052;0.000;0.000;2023-07-02T01:35:03;0.98;;;0.70;;
35971;SDS011;22052;0.000;0.000;2023-07-02T01:37:29;0.88;;;0.60;;
35971;SDS011;22052;0.000;0.000;2023-07-02T01:40:02;0.83;;;0.60;;
35971;SDS011;22052;0.000;0.000;2023-07-02T01:42:31;0.80;;;0.70;;
35971;SDS011;22052;0.000;0.000;2023-07-02T01:44:58;0.75;;;0.60;;
35971;SDS011;22052;0.000;0.000;2023-07-02T01:47:24;0.90;;;0.70;;
35971;SDS011;22052;0.000;0.000;2023-07-02T01:49:50;1.10;;;0.60;;
35971;SDS011;22052;0.000;0.000;2023-07-02T01:52:17;0.82;;;0.63;;
35971;SDS011;22052;0.000;0.000;2023-07-02T01:54:43;1.08;;;0.77;;
35971;SDS011;22052;0.000;0.000;2023-07-02T01:57:09;1.13;;;0.80;;
35971;SDS011;22052;0.000;0.000;2023-07-02T01:59:36;1.27;;;0.90;;
35971;SDS011;22052;0.000;0.000;2023-07-02T02:02:02;1.20;;;0.70;;
35971;SDS011;22052;0.000;0.000;2023-07-02T02:04:28;1.40;;;0.70;;
35971;SDS011;22052;0.000;0.000;2023-07-02T02:06:54;0.90;;;0.70;;
35971;SDS011;22052;0.000;0.000;2023-07-02T02:09:20;0.85;;;0.70;;
35971;SDS011;22052;0.000;0.000;2023-07-02T02:11:49;0.80;;;0.75;;
35971;SDS011;22052;0.000;0.000;2023-07-02T02:14:17;1.08;;;0.70;;
35971;SDS011;22052;0.000;0.000;2023-07-02T02:16:43;1.45;;;0.80;;
35971;SDS011;22052;0.000;0.000;2023-07-02T02:19:12;1.13;;;0.93;;
35971;SDS011;22052;0.000;0.000;2023-07-02T02:21:40;1.70;;;1.10;;
35971;SDS011;22052;0.000;0.000;2023-07-02T02:24:06;1.02;;;0.77;;
35971;SDS011;22052;0.000;0.000;2023-07-02T02:26:33;1.40;;;1.00;;
35971;SDS011;22052;0.000;0.000;2023-07-02T02:28:59;0.93;;;0.73;;
35971;SDS011;22052;0.000;0.000;2023-07-02T02:31:25;1.58;;;0.90;;
35971;SDS011;22052;0.000;0.000;2023-07-02T02:33:52;0.90;;;0.73;;
35971;SDS011;22052;0.000;0.000;2023-07-02T02:36:18;1.20;;;0.90;;
35971;SDS011;22052;0.000;0.000;2023-07-02T02:38:44;1.02;;;0.80;;
35971;SDS011;22052;0.000;0.000;2023-07-02T02:41:11;1.30;;;0.90;;
35971;SDS011;22052;0.000;0.000;2023-07-02T02:43:37;1.52;;;1.20;;
35971;SDS011;22052;0.000;0.000;2023-07-02T02:46:07;1.63;;;0.90;;
35971;SDS011;22052;0.000;0.000;2023-07-02T02:48:33;1.00;;;0.80;;
35971;SDS011;22052;0.000;0.000;2023-07-02T02:50:59;1.75;;;0.98;;
35971;SDS011;22052;0.000;0.000;2023-07-02T02:53:25;1.00;;;0.80;;
35971;SDS011;22052;0.000;0.000;2023-07-02T02:55:51;0.90;;;0.80;;
35971;SDS011;22052;0.000;0.000;2023-07-02T02:58:18;1.13;;;1.00;;
35971;SDS011;22052;0.000;0.000;2023-07-02T03:00:44;1.20;;;1.00;;
35971;SDS011;22052;0.000;0.000;2023-07-02T03:03:14;1.38;;;0.90;;
35971;SDS011;22052;0.000;0.000;2023-07-02T03:05:42;2.47;;;0.90;;
35971;SDS011;22052;0.000;0.000;2023-07-02T03:08:09;0.80;;;0.80;;
35971;SDS011;22052;0.000;0.000;2023-07-02T03:10:35;0.77;;;0.75;;
35971;SDS011;22052;0.000;0.000;2023-07-02T03:13:01;1.08;;;0.75;;
35971;SDS011;22052;0.000;0.000;2023-07-02T03:15:27;1.15;;;0.80;;
35971;SDS011;22052;0.000;0.000;2023-07-02T03:17:53;1.30;;;1.00;;
35971;SDS011;22052;0.000;0.000;2023-07-02T03:20:20;1.45;;;0.90;;
35971;SDS011;22052;0.000;0.000;2023-07-02T03:22:46;2.03;;;1.00;;
35971;SDS011;22052;0.000;0.000;2023-07-02T03:25:12;1.73;;;0.98;;
35971;SDS011;22052;0.000;0.000;2023-07-02T03:27:38;0.80;;;0.70;;
35971;SDS011;22052;0.000;0.000;2023-07-02T03:30:04;0.93;;;0.70;;
35971;SDS011;22052;0.000;0.000;2023-07-02T03:32:31;1.10;;;0.80;;
35971;SDS011;22052;0.000;0.000;2023-07-02T03:34:57;1.13;;;0.70;;
35971;SDS011;22052;0.000;0.000;2023-07-02T03:37:23;0.98;;;0.70;;
35971;SDS011;22052;0.000;0.000;2023-07-02T03:39:49;1.45;;;1.00;;
35971;SDS011;22052;0.000;0.000;2023-07-02T03:42:15;0.80;;;0.60;;
35971;SDS011;22052;0.000;0.000;2023-07-02T03:44:42;1.20;;;0.88;;
35971;SDS011;22052;0.000;0.000;2023-07-02T03:47:08;1.10;;;0.90;;
35971;SDS011;22052;0.000;0.000;2023-07-02T03:49:34;1.48;;;0.80;;
35971;SDS011;22052;0.000;0.000;2023-07-02T03:52:00;1.20;;;0.95;;
35971;SDS011;22052;0.000;0.000;2023-07-02T03:54:26;0.98;;;0.68;;
35971;SDS011;22052;0.000;0.000;2023-07-02T03:56:52;0.65;;;0.65;;
35971;SDS011;22052;0.000;0.000;2023-07-02T03:59:18;1.10;;;0.77;;
35971;SDS011;22052;0.000;0.000;2023-07-02T04:01:44;0.95;;;0.77;;
35971;SDS011;22052;0.000;0.000;2023-07-02T04:04:11;1.30;;;1.00;;
35971;SDS011;22052;0.000;0.000;2023-07-02T04:06:37;1.30;;;1.00;;
35971;SDS011;22052;0.000;0.000;2023-07-02T04:09:03;1.17;;;0.98;;
35971;SDS011;22052;0.000;0.000;2023-07-02T04:11:29;1.48;;;1.15;;
35971;SDS011;22052;0.000;0.000;2023-07-02T04:13:55;1.27;;;1.08;;
35971;SDS011;22052;0.000;0.000;2023-07-02T04:16:21;1.58;;;1.15;;
35971;SDS011;22052;0.000;0.000;2023-07-02T04:18:47;1.33;;;0.90;;
35971;SDS011;22052;0.000;0.000;2023-07-02T04:21:14;1.05;;;0.90;;
35971;SDS011;22052;0.000;0.000;2023-07-02T04:23:40;1.50;;;0.98;;
35971;SDS011;22052;0.000;0.000;2023-07-02T04:26:06;1.08;;;0.93;;
35971;SDS011;22052;0.000;0.000;2023-07-02T04:28:32;1.58;;;1.02;;
35971;SDS011;22052;0.000;0.000;2023-07-02T04:30:58;1.20;;;0.90;;
35971;SDS011;22052;0.000;0.000;2023-07-02T04:33:24;1.55;;;1.00;;
35971;SDS011;22052;0.000;0.000;2023-07-02T04:35:50;2.15;;;1.52;;
35971;SDS011;22052;0.000;0.000;2023-07-02T04:38:16;1.35;;;1.00;;
35971;SDS011;22052;0.000;0.000;2023-07-02T04:40:43;1.40;;;1.10;;
35971;SDS011;22052;0.000;0.000;2023-07-02T04:43:10;1.45;;;1.25;;
35971;SDS011;22052;0.000;0.000;2023-07-02T04:45:36;1.88;;;1.35;;
35971;SDS011;22052;0.000;0.000;2023-07-02T04:48:05;1.55;;;1.10;;
35971;SDS011;22052;0.000;0.000;2023-07-02T04:50:32;1.67;;;1.08;;
35971;SDS011;22052;0.000;0.000;2023-07-02T04:52:58;1.80;;;1.30;;
35971;SDS011;22052;0.000;0.000;2023-07-02T04:55:24;1.58;;;1.25;;
35971;SDS011;22052;0.000;0.000;2023-07-02T04:57:50;1.30;;;1.00;;
35971;SDS011;22052;0.000;0.000;2023-07-02T05:00:16;1.55;;;1.17;;
35971;SDS011;22052;0.000;0.000;2023-07-02T05:02:42;1.85;;;1.30;;
35971;SDS011;22052;0.000;0.000;2023-07-02T05:05:09;1.73;;;1.25;;
35971;SDS011;22052;0.000;0.000;2023-07-02T05:07:35;1.77;;;1.13;;
35971;SDS011;22052;0.000;0.000;2023-07-02T05:10:01;1.73;;;1.15;;
35971;SDS011;22052;0.000;0.000;2023-07-02T05:12:27;1.15;;;1.00;;
35971;SDS011;22052;0.000;0.000;2023-07-02T05:14:53;0.90;;;0.80;;
35971;SDS011;22052;0.000;0.000;2023-07-02T05:17:19;1.00;;;0.77;;
35971;SDS011;22052;0.000;0.000;2023-07-02T05:19:46;2.28;;;1.10;;
35971;SDS011;22052;0.000;0.000;2023-07-02T05:22:12;1.50;;;1.00;;
35971;SDS011;22052;0.000;0.000;2023-07-02T05:24:38;1.42;;;1.10;;
35971;SDS011;22052;0.000;0.000;2023-07-02T05:27:05;1.00;;;0.82;;
35971;SDS011;22052;0.000;0.000;2023-07-02T05:29:32;1.50;;;0.93;;
35971;SDS011;22052;0.000;0.000;2023-07-02T05:31:58;1.02;;;0.90;;
35971;SDS011;22052;0.000;0.000;2023-07-02T05:34:24;0.90;;;0.70;;
35971;SDS011;22052;0.000;0.000;2023-07-02T05:36:50;1.80;;;0.80;;
35971;SDS011;22052;0.000;0.000;2023-07-02T05:39:16;1.35;;;1.00;;
35971;SDS011;22052;0.000;0.000;2023-07-02T05:41:42;1.55;;;1.02;;
35971;SDS011;22052;0.000;0.000;2023-07-02T05:44:08;1.60;;;1.00;;
35971;SDS011;22052;0.000;0.000;2023-07-02T05:46:35;1.10;;;1.00;;
35971;SDS011;22052;0.000;0.000;2023-07-02T05:49:01;1.20;;;1.00;;
35971;SDS011;22052;0.000;0.000;2023-07-02T05:51:27;1.35;;;1.00;;
35971;SDS011;22052;0.000;0.000;2023-07-02T05:53:53;1.58;;;1.00;;
35971;SDS011;22052;0.000;0.000;2023-07-02T05:56:19;1.08;;;0.90;;
35971;SDS011;22052;0.000;0.000;2023-07-02T05:58:45;1.27;;;0.90;;
35971;SDS011;22052;0.000;0.000;2023-07-02T06:01:12;1.20;;;1.00;;
35971;SDS011;22052;0.000;0.000;2023-07-02T06:03:38;1.30;;;1.08;;
35971;SDS011;22052;0.000;0.000;2023-07-02T06:06:04;1.55;;;1.08;;
35971;SDS011;22052;0.000;0.000;2023-07-02T06:08:30;1.40;;;0.90;;
35971;SDS011;22052;0.000;0.000;2023-07-02T06:10:56;1.27;;;1.10;;
35971;SDS011;22052;0.000;0.000;2023-07-02T06:13:22;1.23;;;1.00;;
35971;SDS011;22052;0.000;0.000;2023-07-02T06:15:49;1.42;;;0.98;;
35971;SDS011;22052;0.000;0.000;2023-07-02T06:18:15;1.25;;;0.90;;
35971;SDS011;22052;0.000;0.000;2023-07-02T06:20:42;1.67;;;1.10;;
35971;SDS011;22052;0.000;0.000;2023-07-02T06:23:08;1.63;;;1.10;;
35971;SDS011;22052;0.000;0.000;2023-07-02T06:25:34;1.60;;;1.10;;
35971;SDS011;22052;0.000;0.000;2023-07-02T06:28:01;1.38;;;1.08;;
35971;SDS011;22052;0.000;0.000;2023-07-02T06:30:27;1.67;;;1.20;;
35971;SDS011;22052;0.000;0.000;2023-07-02T06:32:53;1.05;;;0.80;;
35971;SDS011;22052;0.000;0.000;2023-07-02T06:35:20;1.30;;;1.00;;
35971;SDS011;22052;0.000;0.000;2023-07-02T06:37:46;1.40;;;1.20;;
35971;SDS011;22052;0.000;0.000;2023-07-02T06:40:12;1.70;;;1.00;;
35971;SDS011;22052;0.000;0.000;2023-07-02T06:42:38;1.20;;;1.00;;
35971;SDS011;22052;0.000;0.000;2023-07-02T06:45:05;1.30;;;1.00;;
35971;SDS011;22052;0.000;0.000;2023-07-02T06:47:32;1.52;;;1.10;;
35971;SDS011;22052;0.000;0.000;2023-07-02T06:49:58;1.80;;;1.20;;
35971;SDS011;22052;0.000;0.000;2023-07-02T06:52:24;1.25;;;0.93;;
35971;SDS011;22052;0.000;0.000;2023-07-02T06:54:50;1.45;;;1.00;;
35971;SDS011;22052;0.000;0.000;2023-07-02T06:57:16;1.08;;;0.95;;
35971;SDS011;22052;0.000;0.000;2023-07-02T06:59:42;1.15;;;0.98;;
35971;SDS011;22052;0.000;0.000;2023-07-02T07:02:09;1.33;;;0.95;;
35971;SDS011;22052;0.000;0.000;2023-07-02T07:04:35;1.15;;;1.00;;
35971;SDS011;22052;0.000;0.000;2023-07-02T07:07:01;2.60;;;1.13;;
35971;SDS011;22052;0.000;0.000;2023-07-02T07:09:28;1.92;;;1.02;;
35971;SDS011;22052;0.000;0.000;2023-07-02T07:11:54;1.25;;;0.90;;
35971;SDS011;22052;0.000;0.000;2023-07-02T07:14:20;1.35;;;1.00;;
35971;SDS011;22052;0.000;0.000;2023-07-02T07:16:46;1.40;;;1.00;;
35971;SDS011;22052;0.000;0.000;2023-07-02T07:19:12;1.33;;;0.90;;
35971;SDS011;22052;0.000;0.000;2023-07-02T07:21:38;1.10;;;0.90;;
35971;SDS011;22052;0.000;0.000;2023-07-02T07:24:05;1.73;;;1.10;;
35971;SDS011;22052;0.000;0.000;2023-07-02T07:26:31;1.48;;;1.00;;
35971;SDS011;22052;0.000;0.000;2023-07-02T07:28:57;1.52;;;1.20;;
35971;SDS011;22052;0.000;0.000;2023-07-02T07:31:24;1.20;;;1.02;;
35971;SDS011;22052;0.000;0.000;2023-07-02T07:33:50;1.63;;;1.25;;
35971;SDS011;22052;0.000;0.000;2023-07-02T07:36:17;1.00;;;0.90;;
35971;SDS011;22052;0.000;0.000;2023-07-02T07:38:43;1.70;;;1.00;;
35971;SDS011;22052;0.000;0.000;2023-07-02T07:41:09;1.00;;;0.90;;
35971;SDS011;22052;0.000;0.000;2023-07-02T07:43:36;1.52;;;1.10;;
35971;SDS011;22052;0.000;0.000;2023-07-02T07:46:02;1.48;;;1.08;;
35971;SDS011;22052;0.000;0.000;2023-07-02T07:48:28;1.30;;;1.00;;
35971;SDS011;22052;0.000;0.000;2023-07-02T07:50:54;1.42;;;0.98;;
35971;SDS011;22052;0.000;0.000;2023-07-02T07:53:20;1.92;;;1.30;;
35971;SDS011;22052;0.000;0.000;2023-07-02T07:55:46;1.30;;;1.00;;
35971;SDS011;22052;0.000;0.000;2023-07-02T07:58:13;1.88;;;1.17;;
35971;SDS011;22052;0.000;0.000;2023-07-02T08:00:39;1.35;;;1.05;;
35971;SDS011;22052;0.000;0.000;2023-07-02T08:03:05;1.83;;;1.23;;
35971;SDS011;22052;0.000;0.000;2023-07-02T08:05:31;1.83;;;1.25;;
35971;SDS011;22052;0.000;0.000;2023-07-02T08:07:57;1.23;;;1.00;;
35971;SDS011;22052;0.000;0.000;2023-07-02T08:10:24;1.65;;;1.30;;
35971;SDS011;22052;0.000;0.000;2023-07-02T08:12:50;1.40;;;1.10;;
35971;SDS011;22052;0.000;0.000;2023-07-02T08:15:19;1.65;;;1.20;;
35971;SDS011;22052;0.000;0.000;2023-07-02T08:17:45;1.88;;;1.30;;
35971;SDS011;22052;0.000;0.000;2023-07-02T08:20:12;1.10;;;1.00;;
35971;SDS011;22052;0.000;0.000;2023-07-02T08:22:38;2.40;;;1.40;;
35971;SDS011;22052;0.000;0.000;2023-07-02T08:25:05;1.98;;;1.48;;
35971;SDS011;22052;0.000;0.000;2023-07-02T08:27:31;1.63;;;1.20;;
35971;SDS011;22052;0.000;0.000;2023-07-02T08:29:57;1.95;;;1.10;;
35971;SDS011;22052;0.000;0.000;2023-07-02T08:32:23;1.65;;;1.20;;
35971;SDS011;22052;0.000;0.000;2023-07-02T08:34:49;1.48;;;1.10;;
35971;SDS011;22052;0.000;0.000;2023-07-02T08:37:16;1.83;;;1.27;;
35971;SDS011;22052;0.000;0.000;2023-07-02T08:39:43;1.42;;;1.02;;
35971;SDS011;22052;0.000;0.000;2023-07-02T08:42:09;1.20;;;0.90;;
35971;SDS011;22052;0.000;0.000;2023-07-02T08:44:35;2.13;;;1.20;;
35971;SDS011;22052;0.000;0.000;2023-07-02T08:47:01;1.63;;;1.20;;
35971;SDS011;22052;0.000;0.000;2023-07-02T08:49:27;1.70;;;1.10;;
35971;SDS011;22052;0.000;0.000;2023-07-02T08:51:53;1.52;;;1.30;;
35971;SDS011;22052;0.000;0.000;2023-07-02T08:54:20;1.50;;;1.00;;
35971;SDS011;22052;0.000;0.000;2023-07-02T08:56:46;1.60;;;1.20;;
35971;SDS011;22052;0.000;0.000;2023-07-02T08:59:12;1.45;;;0.90;;
35971;SDS011;22052;0.000;0.000;2023-07-02T09:01:48;1.70;;;1.05;;
35971;SDS011;22052;0.000;0.000;2023-07-02T09:04:21;2.05;;;1.23;;
35971;SDS011;22052;0.000;0.000;2023-07-02T09:06:49;1.30;;;1.10;;
35971;SDS011;22052;0.000;0.000;2023-07-02T09:09:15;1.35;;;1.00;;
35971;SDS011;22052;0.000;0.000;2023-07-02T09:11:50;1.25;;;1.08;;
35971;SDS011;22052;0.000;0.000;2023-07-02T09:14:24;1.27;;;0.93;;
35971;SDS011;22052;0.000;0.000;2023-07-02T09:17:00;1.48;;;1.00;;
35971;SDS011;22052;0.000;0.000;2023-07-02T09:19:26;1.35;;;1.10;;
35971;SDS011;22052;0.000;0.000;2023-07-02T09:21:52;1.65;;;1.00;;
35971;SDS011;22052;0.000;0.000;2023-07-02T09:24:23;1.58;;;1.08;;
35971;SDS011;22052;0.000;0.000;2023-07-02T09:26:50;2.88;;;1.27;;
35971;SDS011;22052;0.000;0.000;2023-07-02T09:31:48;1.25;;;1.00;;
35971;SDS011;22052;0.000;0.000;2023-07-02T09:34:15;1.80;;;1.30;;
35971;SDS011;22052;0.000;0.000;2023-07-02T09:36:41;1.58;;;1.10;;
35971;SDS011;22052;0.000;0.000;2023-07-02T09:39:11;2.03;;;1.45;;
35971;SDS011;22052;0.000;0.000;2023-07-02T09:41:38;1.20;;;1.02;;
35971;SDS011;22052;0.000;0.000;2023-07-02T09:44:05;1.55;;;1.10;;
35971;SDS011;22052;0.000;0.000;2023-07-02T09:46:32;1.50;;;1.20;;
35971;SDS011;22052;0.000;0.000;2023-07-02T09:49:00;1.50;;;1.10;;
35971;SDS011;22052;0.000;0.000;2023-07-02T09:51:26;1.35;;;1.10;;
35971;SDS011;22052;0.000;0.000;2023-07-02T09:53:52;1.25;;;1.10;;
35971;SDS011;22052;0.000;0.000;2023-07-02T09:56:19;1.55;;;1.10;;
35971;SDS011;22052;0.000;0.000;2023-07-02T09:58:46;1.50;;;1.10;;
35971;SDS011;22052;0.000;0.000;2023-07-02T10:01:12;1.50;;;1.20;;
35971;SDS011;22052;0.000;0.000;2023-07-02T10:03:38;1.50;;;1.08;;
35971;SDS011;22052;0.000;0.000;2023-07-02T10:06:05;1.70;;;1.10;;
35971;SDS011;22052;0.000;0.000;2023-07-02T10:08:32;1.55;;;1.15;;
35971;SDS011;22052;0.000;0.000;2023-07-02T10:11:11;1.52;;;1.20;;
35971;SDS011;22052;0.000;0.000;2023-07-02T10:13:38;1.73;;;1.10;;
35971;SDS011;22052;0.000;0.000;2023-07-02T10:16:04;1.63;;;1.00;;
35971;SDS011;22052;0.000;0.000;2023-07-02T10:18:31;1.55;;;1.20;;
35971;SDS011;22052;0.000;0.000;2023-07-02T10:20:57;1.48;;;1.00;;
35971;SDS011;22052;0.000;0.000;2023-07-02T10:23:33;1.65;;;1.20;;
35971;SDS011;22052;0.000;0.000;2023-07-02T10:26:13;1.30;;;1.00;;
35971;SDS011;22052;0.000;0.000;2023-07-02T10:28:40;2.10;;;1.33;;
35971;SDS011;22052;0.000;0.000;2023-07-02T10:31:27;1.60;;;1.25;;
35971;SDS011;22052;0.000;0.000;2023-07-02T10:33:52;2.17;;;1.40;;
35971;SDS011;22052;0.000;0.000;2023-07-02T10:36:22;1.40;;;1.08;;
35971;SDS011;22052;0.000;0.000;2023-07-02T10:38:49;1.95;;;1.20;;
35971;SDS011;22052;0.000;0.000;2023-07-02T10:41:28;1.35;;;1.13;;
35971;SDS011;22052;0.000;0.000;2023-07-02T10:43:56;2.38;;;1.30;;
35971;SDS011;22052;0.000;0.000;2023-07-02T10:46:30;1.65;;;1.20;;
35971;SDS011;22052;0.000;0.000;2023-07-02T10:48:56;1.58;;;1.02;;
35971;SDS011;22052;0.000;0.000;2023-07-02T10:51:23;2.35;;;1.17;;
35971;SDS011;22052;0.000;0.000;2023-07-02T10:54:01;1.98;;;1.20;;
35971;SDS011;22052;0.000;0.000;2023-07-02T10:56:29;2.03;;;1.20;;
35971;SDS011;22052;0.000;0.000;2023-07-02T10:58:56;1.48;;;1.13;;
35971;SDS011;22052;0.000;0.000;2023-07-02T11:01:29;1.50;;;1.10;;
35971;SDS011;22052;0.000;0.000;2023-07-02T11:03:59;1.65;;;1.30;;
35971;SDS011;22052;0.000;0.000;2023-07-02T11:06:26;1.77;;;1.15;;
35971;SDS011;22052;0.000;0.000;2023-07-02T11:08:52;2.08;;;1.30;;
35971;SDS011;22052;0.000;0.000;2023-07-02T11:11:20;1.30;;;1.10;;
35971;SDS011;22052;0.000;0.000;2023-07-02T11:13:46;1.85;;;1.20;;
35971;SDS011;22052;0.000;0.000;2023-07-02T11:16:18;1.60;;;1.10;;
35971;SDS011;22052;0.000;0.000;2023-07-02T11:18:45;1.20;;;1.00;;
35971;SDS011;22052;0.000;0.000;2023-07-02T11:21:11;1.70;;;1.27;;
35971;SDS011;22052;0.000;0.000;2023-07-02T11:23:37;1.67;;;1.20;;
35971;SDS011;22052;0.000;0.000;2023-07-02T11:26:03;1.95;;;1.27;;
35971;SDS011;22052;0.000;0.000;2023-07-02T11:28:30;1.90;;;1.30;;
35971;SDS011;22052;0.000;0.000;2023-07-02T11:30:57;1.63;;;1.25;;
35971;SDS011;22052;0.000;0.000;2023-07-02T11:35:59;2.05;;;1.30;;
35971;SDS011;22052;0.000;0.000;2023-07-02T11:38:25;1.25;;;1.00;;
35971;SDS011;22052;0.000;0.000;2023-07-02T11:40:51;1.10;;;1.00;;
35971;SDS011;22052;0.000;0.000;2023-07-02T11:43:17;1.83;;;1.20;;
35971;SDS011;22052;0.000;0.000;2023-07-02T11:45:44;1.80;;;1.20;;
35971;SDS011;22052;0.000;0.000;2023-07-02T11:48:10;1.58;;;1.10;;
35971;SDS011;22052;0.000;0.000;2023-07-02T11:50:36;1.30;;;1.05;;
35971;SDS011;22052;0.000;0.000;2023-07-02T11:53:02;1.60;;;1.23;;
35971;SDS011;22052;0.000;0.000;2023-07-02T11:55:28;1.40;;;1.00;;
35971;SDS011;22052;0.000;0.000;2023-07-02T11:57:54;1.90;;;1.20;;
35971;SDS011;22052;0.000;0.000;2023-07-02T12:00:20;1.52;;;1.17;;
35971;SDS011;22052;0.000;0.000;2023-07-02T12:02:46;1.50;;;1.13;;
35971;SDS011;22052;0.000;0.000;2023-07-02T12:05:13;1.60;;;1.20;;
35971;SDS011;22052;0.000;0.000;2023-07-02T12:07:39;1.50;;;1.00;;
35971;SDS011;22052;0.000;0.000;2023-07-02T12:10:05;1.35;;;1.10;;
35971;SDS011;22052;0.000;0.000;2023-07-02T12:12:32;1.92;;;1.10;;
35971;SDS011;22052;0.000;0.000;2023-07-02T12:14:58;1.48;;;1.10;;
35971;SDS011;22052;0.000;0.000;2023-07-02T12:17:24;1.58;;;1.15;;
35971;SDS011;22052;0.000;0.000;2023-07-02T12:19:50;1.88;;;1.23;;
35971;SDS011;22052;0.000;0.000;2023-07-02T12:22:16;1.88;;;1.10;;
35971;SDS011;22052;0.000;0.000;2023-07-02T12:24:43;1.63;;;1.10;;
35971;SDS011;22052;0.000;0.000;2023-07-02T12:27:09;1.48;;;1.17;;
35971;SDS011;22052;0.000;0.000;2023-07-02T12:29:36;1.55;;;1.13;;
35971;SDS011;22052;0.000;0.000;2023-07-02T12:32:02;1.60;;;1.20;;
35971;SDS011;22052;0.000;0.000;2023-07-02T12:34:28;1.33;;;1.08;;
35971;SDS011;22052;0.000;0.000;2023-07-02T12:36:54;1.60;;;1.10;;
35971;SDS011;22052;0.000;0.000;2023-07-02T12:39:20;1.48;;;1.10;;
35971;SDS011;22052;0.000;0.000;2023-07-02T12:41:47;2.50;;;1.17;;
35971;SDS011;22052;0.000;0.000;2023-07-02T12:44:13;1.52;;;1.15;;
35971;SDS011;22052;0.000;0.000;2023-07-02T12:46:39;1.33;;;1.00;;
35971;SDS011;22052;0.000;0.000;2023-07-02T12:49:05;1.70;;;1.20;;
35971;SDS011;22052;0.000;0.000;2023-07-02T12:51:31;1.70;;;1.35;;
35971;SDS011;22052;0.000;0.000;2023-07-02T12:53:57;1.60;;;1.23;;
35971;SDS011;22052;0.000;0.000;2023-07-02T12:56:23;1.25;;;1.10;;
35971;SDS011;22052;0.000;0.000;2023-07-02T12:58:49;2.00;;;1.40;;
35971;SDS011;22052;0.000;0.000;2023-07-02T13:01:16;1.58;;;1.23;;
35971;SDS011;22052;0.000;0.000;2023-07-02T13:03:46;1.67;;;1.17;;
35971;SDS011;22052;0.000;0.000;2023-07-02T13:06:12;1.65;;;1.17;;
35971;SDS011;22052;0.000;0.000;2023-07-02T13:08:38;1.50;;;1.20;;
35971;SDS011;22052;0.000;0.000;2023-07-02T13:11:04;1.80;;;1.33;;
35971;SDS011;22052;0.000;0.000;2023-07-02T13:13:31;1.65;;;1.10;;
35971;SDS011;22052;0.000;0.000;2023-07-02T13:15:57;2.58;;;1.30;;
35971;SDS011;22052;0.000;0.000;2023-07-02T13:18:24;1.80;;;1.15;;
35971;SDS011;22052;0.000;0.000;2023-07-02T13:20:50;1.98;;;1.20;;
35971;SDS011;22052;0.000;0.000;2023-07-02T13:23:16;1.75;;;1.30;;
35971;SDS011;22052;0.000;0.000;2023-07-02T13:25:42;1.73;;;1.30;;
35971;SDS011;22052;0.000;0.000;2023-07-02T13:28:09;2.10;;;1.30;;
35971;SDS011;22052;0.000;0.000;2023-07-02T13:30:35;2.03;;;1.30;;
35971;SDS011;22052;0.000;0.000;2023-07-02T13:33:01;1.70;;;1.40;;
35971;SDS011;22052;0.000;0.000;2023-07-02T13:35:27;1.75;;;1.25;;
35971;SDS011;22052;0.000;0.000;2023-07-02T13:37:53;2.38;;;1.60;;
35971;SDS011;22052;0.000;0.000;2023-07-02T13:40:19;1.95;;;1.30;;
35971;SDS011;22052;0.000;0.000;2023-07-02T13:42:45;1.55;;;1.17;;
35971;SDS011;22052;0.000;0.000;2023-07-02T13:45:12;1.90;;;1.35;;
35971;SDS011;22052;0.000;0.000;2023-07-02T13:47:38;1.75;;;1.33;;
35971;SDS011;22052;0.000;0.000;2023-07-02T13:50:04;2.17;;;1.52;;
35971;SDS011;22052;0.000;0.000;2023-07-02T13:52:30;1.90;;;1.10;;
35971;SDS011;22052;0.000;0.000;2023-07-02T13:54:57;2.10;;;1.30;;
35971;SDS011;22052;0.000;0.000;2023-07-02T13:57:24;1.92;;;1.30;;
35971;SDS011;22052;0.000;0.000;2023-07-02T13:59:50;2.13;;;1.38;;
35971;SDS011;22052;0.000;0.000;2023-07-02T14:02:16;2.35;;;1.40;;
35971;SDS011;22052;0.000;0.000;2023-07-02T14:04:44;2.45;;;1.40;;
35971;SDS011;22052;0.000;0.000;2023-07-02T14:07:11;2.22;;;1.30;;
35971;SDS011;22052;0.000;0.000;2023-07-02T14:09:37;1.80;;;1.30;;
35971;SDS011;22052;0.000;0.000;2023-07-02T14:12:03;1.50;;;1.27;;
35971;SDS011;22052;0.000;0.000;2023-07-02T14:14:29;1.58;;;1.17;;
35971;SDS011;22052;0.000;0.000;2023-07-02T14:16:55;2.08;;;1.20;;
35971;SDS011;22052;0.000;0.000;2023-07-02T14:19:22;1.50;;;1.30;;
35971;SDS011;22052;0.000;0.000;2023-07-02T14:21:48;2.17;;;1.45;;
35971;SDS011;22052;0.000;0.000;2023-07-02T14:24:14;1.92;;;1.48;;
35971;SDS011;22052;0.000;0.000;2023-07-02T14:26:40;1.83;;;1.40;;
35971;SDS011;22052;0.000;0.000;2023-07-02T14:29:08;1.65;;;1.20;;
35971;SDS011;22052;0.000;0.000;2023-07-02T14:31:35;2.03;;;1.20;;
35971;SDS011;22052;0.000;0.000;2023-07-02T14:34:01;2.00;;;1.30;;
35971;SDS011;22052;0.000;0.000;2023-07-02T14:36:27;1.73;;;1.30;;
35971;SDS011;22052;0.000;0.000;2023-07-02T14:38:53;1.88;;;1.48;;
35971;SDS011;22052;0.000;0.000;2023-07-02T14:41:19;1.60;;;1.30;;
35971;SDS011;22052;0.000;0.000;2023-07-02T14:43:45;1.92;;;1.50;;
35971;SDS011;22052;0.000;0.000;2023-07-02T14:46:12;2.25;;;1.20;;
35971;SDS011;22052;0.000;0.000;2023-07-02T14:48:38;1.80;;;1.13;;
35971;SDS011;22052;0.000;0.000;2023-07-02T14:51:05;1.95;;;1.20;;
35971;SDS011;22052;0.000;0.000;2023-07-02T14:53:32;2.53;;;1.40;;
35971;SDS011;22052;0.000;0.000;2023-07-02T14:56:00;1.92;;;1.40;;
35971;SDS011;22052;0.000;0.000;2023-07-02T14:58:27;2.05;;;1.58;;
35971;SDS011;22052;0.000;0.000;2023-07-02T15:00:55;2.90;;;1.45;;
35971;SDS011;22052;0.000;0.000;2023-07-02T15:03:22;1.98;;;1.55;;